Cairo, Egypt
Current Conditions -  °F | °C
As of 4:00 PM on Thursday 30 Oct 2014 (Local Time) from HECA Reporting Station
Scattered Clouds Scattered Clouds  
Wind Chill: 79°   Ceiling: Unl
Heat Index: 79°   Visibility: 6mi
Dew Point: 52°   Wind: 12mph
Humidity: 39%   Direction: 320°NW
Pressure: 29.94"   Gusts: NA
Location:  30.06°N, 31.25°E
Report Text: HECA 301400Z 32010KT 9999 SCT025 SCT070 26/11 Q1014 NOSIG
Loading
Personal Weather Stations






























Interactive Weather Map
Tropical Storm Tracking
New forecast layout! Learn more

10-Day Weather Forecast

Advertisements
Track Severe Weather on mobile